createdAt,value
2023-03-11T00:00:47.683Z,1.67
2023-03-11T00:03:16.833Z,1.98
2023-03-11T00:05:45.559Z,1.48
2023-03-11T00:08:18.817Z,1.60
2023-03-11T00:13:15.984Z,1.77
2023-03-11T00:15:51.561Z,1.50
2023-03-11T00:18:19.092Z,2.10
2023-03-11T00:20:49.078Z,1.70
2023-03-11T00:23:16.368Z,1.70
2023-03-11T00:25:49.123Z,1.50
2023-03-11T00:28:16.658Z,2.28
2023-03-11T00:30:46.137Z,1.40
2023-03-11T00:33:15.960Z,2.42
2023-03-11T00:35:44.397Z,1.20
2023-03-11T00:38:20.172Z,2.22
2023-03-11T00:40:48.657Z,1.05
2023-03-11T00:43:18.165Z,1.73
2023-03-11T00:45:45.822Z,1.13
2023-03-11T00:48:14.048Z,1.30
2023-03-11T00:50:41.736Z,1.42
2023-03-11T00:53:10.413Z,1.67
2023-03-11T00:55:40.412Z,0.85
2023-03-11T00:58:11.500Z,1.10
2023-03-11T01:00:42.925Z,1.98
2023-03-11T01:03:10.637Z,1.15
2023-03-11T01:05:37.869Z,1.42
2023-03-11T01:08:05.597Z,1.10
2023-03-11T01:10:37.843Z,1.52
2023-03-11T01:13:05.507Z,1.00
2023-03-11T01:15:36.337Z,1.63
2023-03-11T01:18:04.595Z,1.40
2023-03-11T01:20:34.938Z,1.10
2023-03-11T01:23:09.009Z,1.40
2023-03-11T01:28:08.502Z,1.10
2023-03-11T01:30:38.398Z,1.25
2023-03-11T01:33:06.569Z,1.27
2023-03-11T01:35:33.937Z,0.98
2023-03-11T01:38:01.688Z,3.17
2023-03-11T01:40:41.821Z,1.77
2023-03-11T01:43:41.464Z,1.20
2023-03-11T01:46:20.377Z,1.52
2023-03-11T01:48:52.693Z,1.77
2023-03-11T01:51:32.162Z,1.73
2023-03-11T01:54:13.422Z,1.67
2023-03-11T01:56:42.939Z,1.73
2023-03-11T01:59:13.469Z,1.00
2023-03-11T02:01:52.466Z,1.63
2023-03-11T02:04:21.564Z,1.75
2023-03-11T02:06:50.341Z,1.45
2023-03-11T02:09:23.993Z,1.40
2023-03-11T02:11:54.199Z,1.92
2023-03-11T02:14:21.769Z,1.73
2023-03-11T02:16:53.838Z,1.45
2023-03-11T02:19:48.669Z,1.08
2023-03-11T02:22:16.789Z,1.30
2023-03-11T02:25:10.614Z,1.30
2023-03-11T02:27:41.299Z,1.10
2023-03-11T02:30:12.026Z,1.67
2023-03-11T02:32:41.075Z,1.38
2023-03-11T02:35:08.347Z,2.40
2023-03-11T02:37:37.165Z,1.30
2023-03-11T02:40:22.150Z,1.42
2023-03-11T02:43:03.538Z,1.30
2023-03-11T02:45:31.437Z,1.33
2023-03-11T02:48:00.572Z,1.23
2023-03-11T02:50:30.306Z,2.13
2023-03-11T02:52:59.939Z,2.17
2023-03-11T02:55:27.370Z,1.48
2023-03-11T02:57:54.483Z,1.65
2023-03-11T03:00:22.095Z,1.88
2023-03-11T03:03:01.408Z,1.60
2023-03-11T03:05:30.441Z,1.63
2023-03-11T03:07:59.372Z,1.38
2023-03-11T03:10:26.727Z,3.05
2023-03-11T03:12:53.965Z,1.48
2023-03-11T03:15:22.401Z,1.23
2023-03-11T03:17:51.556Z,1.40
2023-03-11T03:20:22.764Z,1.75
2023-03-11T03:22:53.510Z,1.92
2023-03-11T03:25:25.372Z,1.00
2023-03-11T03:27:53.344Z,1.70
2023-03-11T03:30:20.808Z,1.33
2023-03-11T03:32:51.001Z,1.17
2023-03-11T03:35:18.848Z,1.35
2023-03-11T03:38:04.789Z,1.50
2023-03-11T03:40:33.672Z,2.33
2023-03-11T03:43:04.833Z,1.33
2023-03-11T03:45:33.402Z,1.30
2023-03-11T03:48:03.927Z,1.08
2023-03-11T03:50:34.575Z,2.00
2023-03-11T03:53:04.183Z,1.23
2023-03-11T03:55:32.006Z,2.05
2023-03-11T03:58:00.046Z,1.65
2023-03-11T04:00:32.079Z,1.40
2023-03-11T04:03:06.771Z,1.83
2023-03-11T04:05:41.999Z,1.13
2023-03-11T04:08:09.776Z,1.58
2023-03-11T04:10:36.999Z,1.25
2023-03-11T04:13:05.034Z,1.77
2023-03-11T04:15:39.431Z,1.08
2023-03-11T04:18:09.792Z,1.67
2023-03-11T04:20:38.945Z,1.58
2023-03-11T04:23:08.714Z,2.10
2023-03-11T04:25:36.492Z,1.67
2023-03-11T04:28:03.769Z,1.98
2023-03-11T04:30:34.868Z,1.58
2023-03-11T04:33:02.339Z,1.52
2023-03-11T04:35:32.567Z,2.50
2023-03-11T04:38:00.902Z,1.35
2023-03-11T04:40:29.106Z,1.52
2023-03-11T04:42:56.478Z,1.75
2023-03-11T04:45:24.547Z,1.70
2023-03-11T04:47:55.563Z,9.60
2023-03-11T04:50:22.981Z,1.42
2023-03-11T04:52:50.162Z,3.47
2023-03-11T04:55:17.944Z,4.05
2023-03-11T04:57:47.522Z,4.75
2023-03-11T05:00:16.349Z,1.45
2023-03-11T05:02:50.963Z,2.20
2023-03-11T05:05:21.138Z,3.50
2023-03-11T05:07:52.169Z,2.30
2023-03-11T05:10:26.247Z,2.83
2023-03-11T05:12:58.994Z,4.80
2023-03-11T05:15:31.521Z,2.80
2023-03-11T05:18:01.502Z,2.17
2023-03-11T05:20:29.338Z,1.70
2023-03-11T05:22:56.717Z,1.95
2023-03-11T05:25:26.830Z,2.40
2023-03-11T05:27:56.622Z,3.15
2023-03-11T05:30:26.884Z,2.45
2023-03-11T05:32:56.340Z,2.63
2023-03-11T05:35:25.933Z,1.60
2023-03-11T05:37:54.855Z,1.55
2023-03-11T05:40:23.348Z,1.80
2023-03-11T05:42:56.414Z,1.10
2023-03-11T05:45:25.006Z,1.70
2023-03-11T05:47:54.470Z,1.77
2023-03-11T05:50:21.986Z,1.50
2023-03-11T05:52:53.167Z,1.52
2023-03-11T05:55:23.854Z,3.95
2023-03-11T05:57:52.340Z,1.75
2023-03-11T06:00:21.259Z,3.95
2023-03-11T06:02:52.202Z,3.67
2023-03-11T06:05:20.965Z,2.20
2023-03-11T06:07:51.908Z,2.42
2023-03-11T06:10:23.292Z,1.63
2023-03-11T06:12:50.960Z,4.13
2023-03-11T06:15:34.997Z,1.70
2023-03-11T06:18:05.447Z,1.50
2023-03-11T06:20:32.887Z,1.85
2023-03-11T06:23:00.205Z,8.93
2023-03-11T06:25:31.529Z,10.77
2023-03-11T06:27:59.174Z,5.68
2023-03-11T06:30:30.979Z,5.43
2023-03-11T06:33:06.902Z,5.45
2023-03-11T06:35:39.555Z,3.15
2023-03-11T06:38:08.060Z,6.18
2023-03-11T06:40:39.479Z,2.33
2023-03-11T06:43:08.825Z,5.50
2023-03-11T06:45:39.764Z,4.30
2023-03-11T06:48:07.233Z,1.88
2023-03-11T06:50:36.123Z,2.67
2023-03-11T06:53:07.594Z,2.30
2023-03-11T06:55:37.675Z,2.35
2023-03-11T06:58:05.240Z,2.58
2023-03-11T07:00:36.812Z,1.65
2023-03-11T07:03:07.001Z,2.88
2023-03-11T07:05:39.269Z,2.03
2023-03-11T07:08:11.836Z,1.58
2023-03-11T07:10:39.509Z,2.85
2023-03-11T07:13:09.903Z,3.15
2023-03-11T07:15:37.093Z,1.52
2023-03-11T07:18:04.903Z,1.52
2023-03-11T07:20:32.115Z,3.00
2023-03-11T07:22:59.628Z,1.13
2023-03-11T07:25:27.056Z,2.05
2023-03-11T07:27:54.377Z,1.25
2023-03-11T07:30:21.882Z,1.88
2023-03-11T07:32:51.432Z,0.80
2023-03-11T07:35:19.229Z,1.90
2023-03-11T07:37:46.490Z,2.60
2023-03-11T07:40:14.061Z,1.75
2023-03-11T07:42:43.283Z,1.83
2023-03-11T07:45:11.492Z,1.90
2023-03-11T07:47:41.280Z,1.65
2023-03-11T07:50:09.161Z,1.23
2023-03-11T07:52:36.372Z,1.13
2023-03-11T07:55:04.099Z,1.63
2023-03-11T07:57:31.384Z,1.00
2023-03-11T08:00:00.912Z,1.20
2023-03-11T08:02:30.354Z,5.70
2023-03-11T08:04:59.993Z,4.57
2023-03-11T08:07:27.240Z,2.83
2023-03-11T08:09:55.641Z,4.40
2023-03-11T08:12:23.827Z,3.65
2023-03-11T08:14:50.952Z,3.30
2023-03-11T08:17:18.390Z,3.17
2023-03-11T08:19:45.777Z,8.80
2023-03-11T08:22:13.574Z,4.40
2023-03-11T08:24:40.805Z,8.18
2023-03-11T08:27:09.599Z,6.15
2023-03-11T08:29:37.221Z,7.28
2023-03-11T08:32:04.770Z,5.72
2023-03-11T08:34:32.955Z,3.35
2023-03-11T08:37:00.365Z,6.28
2023-03-11T08:39:28.891Z,3.47
2023-03-11T08:41:57.277Z,4.70
2023-03-11T08:44:24.400Z,6.82
2023-03-11T08:46:54.314Z,3.30
2023-03-11T08:49:21.480Z,4.78
2023-03-11T08:51:51.498Z,5.90
2023-03-11T08:54:18.813Z,3.35
2023-03-11T08:56:50.790Z,3.22
2023-03-11T08:59:23.207Z,6.25
2023-03-11T09:01:50.588Z,3.83
2023-03-11T09:04:21.554Z,3.47
2023-03-11T09:06:49.094Z,4.03
2023-03-11T09:09:21.119Z,3.30
2023-03-11T09:11:55.134Z,3.78
2023-03-11T09:14:24.913Z,3.08
2023-03-11T09:16:52.336Z,4.47
2023-03-11T09:19:19.417Z,4.10
2023-03-11T09:21:46.736Z,9.18
2023-03-11T09:24:14.108Z,2.03
2023-03-11T09:26:41.368Z,4.25
2023-03-11T09:29:09.176Z,4.03
2023-03-11T09:31:38.706Z,2.70
2023-03-11T09:34:16.079Z,3.35
2023-03-11T09:36:48.468Z,3.42
2023-03-11T09:39:15.663Z,4.90
2023-03-11T09:41:58.888Z,6.50
2023-03-11T09:44:48.012Z,2.97
2023-03-11T09:47:57.159Z,2.67
2023-03-11T09:50:58.211Z,3.20
2023-03-11T09:53:38.377Z,6.72
2023-03-11T09:56:20.038Z,3.28
2023-03-11T09:58:55.329Z,3.55
2023-03-11T10:02:12.625Z,4.78
2023-03-11T10:08:31.165Z,2.75
2023-03-11T10:11:16.183Z,3.28
2023-03-11T10:14:05.866Z,4.85
2023-03-11T10:16:45.405Z,2.63
2023-03-11T10:19:22.714Z,2.67
2023-03-11T10:22:26.391Z,4.15
2023-03-11T10:27:44.967Z,3.17
2023-03-11T10:30:21.043Z,2.35
2023-03-11T10:32:53.480Z,3.40
2023-03-11T10:35:27.328Z,4.50
2023-03-11T10:38:13.199Z,3.90
2023-03-11T10:43:37.193Z,5.00
2023-03-11T10:48:39.595Z,5.88
2023-03-11T10:51:26.905Z,4.32
2023-03-11T10:53:59.534Z,5.20
2023-03-11T10:56:37.154Z,5.03
2023-03-11T10:59:25.171Z,7.75
2023-03-11T11:02:27.588Z,6.35
2023-03-11T11:05:17.842Z,9.45
2023-03-11T11:07:49.736Z,7.95
2023-03-11T11:10:28.013Z,6.65
2023-03-11T11:12:59.338Z,10.15
2023-03-11T11:15:45.206Z,12.18
2023-03-11T11:18:28.584Z,10.20
2023-03-11T11:23:41.457Z,9.75
2023-03-11T11:26:28.092Z,7.07
2023-03-11T11:29:10.417Z,6.22
2023-03-11T11:31:39.640Z,10.00
2023-03-11T11:34:34.274Z,8.60
2023-03-11T11:37:06.149Z,7.68
2023-03-11T11:39:51.636Z,9.48
2023-03-11T11:42:20.183Z,12.70
2023-03-11T11:44:55.730Z,9.95
2023-03-11T11:47:35.079Z,9.75
2023-03-11T11:50:07.247Z,8.98
2023-03-11T11:52:45.246Z,10.47
2023-03-11T11:55:29.158Z,12.88
2023-03-11T11:57:57.298Z,19.65
2023-03-11T12:00:37.455Z,13.57
2023-03-11T12:03:26.053Z,11.82
2023-03-11T12:05:59.055Z,10.75
2023-03-11T12:08:41.646Z,7.15
2023-03-11T12:11:21.492Z,9.02
2023-03-11T12:14:15.435Z,8.25
2023-03-11T12:16:51.820Z,7.22
2023-03-11T12:19:29.602Z,6.78
2023-03-11T12:22:26.589Z,6.85
2023-03-11T12:25:09.121Z,6.47
2023-03-11T12:27:41.996Z,5.77
2023-03-11T12:30:20.159Z,5.20
2023-03-11T12:32:52.002Z,3.47
2023-03-11T12:35:34.785Z,4.97
2023-03-11T12:38:35.800Z,3.45
2023-03-11T12:41:15.496Z,3.83
2023-03-11T12:43:46.180Z,2.85
2023-03-11T12:46:17.593Z,3.78
2023-03-11T12:49:12.395Z,4.55
2023-03-11T12:51:43.863Z,2.70
2023-03-11T12:54:30.710Z,4.00
2023-03-11T12:57:32.661Z,2.63
2023-03-11T13:00:07.633Z,3.42
2023-03-11T13:03:11.223Z,3.45
2023-03-11T13:06:09.517Z,4.85
2023-03-11T13:08:48.535Z,4.25
2023-03-11T13:11:34.259Z,2.63
2023-03-11T13:14:32.197Z,2.72
2023-03-11T13:17:28.206Z,3.80
2023-03-11T13:19:57.118Z,6.32
2023-03-11T13:22:43.526Z,2.78
2023-03-11T13:25:29.839Z,4.03
2023-03-11T13:28:14.330Z,2.63
2023-03-11T13:30:59.008Z,4.55
2023-03-11T13:33:54.706Z,5.32
2023-03-11T13:36:42.370Z,14.23
2023-03-11T13:39:22.807Z,10.25
2023-03-11T13:41:50.404Z,3.22
2023-03-11T13:44:20.138Z,5.30
2023-03-11T13:47:02.081Z,3.13
2023-03-11T13:50:06.785Z,4.45
2023-03-11T13:52:44.310Z,3.22
2023-03-11T13:55:22.385Z,3.25
2023-03-11T13:57:57.650Z,4.13
2023-03-11T14:00:35.203Z,3.72
2023-03-11T14:03:05.238Z,4.03
2023-03-11T14:05:43.772Z,3.20
2023-03-11T14:08:29.778Z,3.08
2023-03-11T14:11:03.878Z,3.90
2023-03-11T14:13:43.393Z,4.07
2023-03-11T14:16:34.813Z,5.63
2023-03-11T14:19:05.864Z,4.25
2023-03-11T14:21:43.435Z,3.65
2023-03-11T14:24:22.090Z,2.72
2023-03-11T14:26:55.539Z,2.05
2023-03-11T14:29:32.826Z,6.00
2023-03-11T14:32:16.291Z,7.38
2023-03-11T14:34:48.463Z,4.68
2023-03-11T14:37:31.119Z,4.00
2023-03-11T14:39:59.750Z,5.40
2023-03-11T14:42:35.228Z,5.03
2023-03-11T14:45:11.214Z,3.70
2023-03-11T14:48:08.173Z,2.45
2023-03-11T14:50:38.883Z,9.63
2023-03-11T14:53:19.907Z,2.63
2023-03-11T14:55:55.170Z,3.15
2023-03-11T14:58:35.000Z,3.92
2023-03-11T15:01:11.810Z,2.20
2023-03-11T15:03:52.653Z,3.25
2023-03-11T15:06:25.837Z,2.60
2023-03-11T15:09:08.793Z,1.98
2023-03-11T15:12:04.197Z,2.40
2023-03-11T15:17:39.272Z,3.08
2023-03-11T15:20:24.616Z,2.05
2023-03-11T15:23:01.666Z,1.55
2023-03-11T15:25:34.881Z,1.75
2023-03-11T15:29:07.069Z,3.10
2023-03-11T15:31:52.982Z,2.55
2023-03-11T15:34:47.583Z,1.92
2023-03-11T15:37:21.649Z,1.52
2023-03-11T15:39:52.712Z,1.17
2023-03-11T15:43:37.309Z,2.10
2023-03-11T15:47:10.519Z,1.63
2023-03-11T15:49:50.633Z,1.70
2023-03-11T15:52:28.101Z,5.10
2023-03-11T15:55:12.449Z,1.35
2023-03-11T15:57:47.487Z,1.42
2023-03-11T16:00:34.466Z,2.00
2023-03-11T16:05:36.711Z,1.85
2023-03-11T16:08:09.725Z,1.48
2023-03-11T16:10:38.236Z,2.08
2023-03-11T16:13:06.874Z,1.45
2023-03-11T16:15:38.463Z,2.10
2023-03-11T16:18:08.754Z,2.78
2023-03-11T16:20:43.989Z,3.40
2023-03-11T16:23:26.250Z,2.05
2023-03-11T16:26:03.007Z,5.45
2023-03-11T16:28:30.367Z,2.03
2023-03-11T16:30:58.081Z,2.15
2023-03-11T16:33:26.400Z,1.83
2023-03-11T16:35:53.593Z,4.43
2023-03-11T16:38:23.418Z,5.68
2023-03-11T16:41:03.290Z,3.95
2023-03-11T16:43:31.745Z,5.13
2023-03-11T16:45:59.051Z,4.60
2023-03-11T16:48:28.529Z,4.10
2023-03-11T16:50:56.877Z,4.45
2023-03-11T16:53:27.658Z,4.80
2023-03-11T16:55:56.519Z,4.15
2023-03-11T16:58:24.133Z,5.18
2023-03-11T17:00:51.884Z,5.20
2023-03-11T17:03:21.530Z,10.95
2023-03-11T17:05:49.593Z,5.75
2023-03-11T17:08:19.257Z,5.38
2023-03-11T17:10:46.772Z,6.03
2023-03-11T17:13:18.952Z,5.68
2023-03-11T17:16:00.756Z,5.32
2023-03-11T17:19:18.118Z,5.35
2023-03-11T17:21:45.610Z,4.90
2023-03-11T17:24:15.249Z,6.13
2023-03-11T17:26:42.355Z,6.82
2023-03-11T17:29:10.278Z,6.10
2023-03-11T17:31:40.021Z,5.82
2023-03-11T17:34:09.354Z,7.30
2023-03-11T17:36:41.301Z,5.57
2023-03-11T17:39:09.383Z,4.82
2023-03-11T17:41:36.855Z,7.90
2023-03-11T17:44:05.399Z,5.25
2023-03-11T17:46:33.563Z,4.20
2023-03-11T17:49:03.115Z,4.35
2023-03-11T17:51:35.885Z,8.25
2023-03-11T17:54:05.286Z,9.17
2023-03-11T17:56:34.923Z,7.25
2023-03-11T17:59:02.243Z,6.43
2023-03-11T18:01:32.090Z,4.05
2023-03-11T18:04:03.239Z,7.32
2023-03-11T18:06:31.043Z,4.13
2023-03-11T18:08:58.583Z,3.80
2023-03-11T18:11:28.053Z,4.65
2023-03-11T18:13:55.441Z,4.28
2023-03-11T18:16:28.856Z,2.92
2023-03-11T18:19:00.227Z,5.32
2023-03-11T18:21:29.980Z,4.60
2023-03-11T18:24:01.165Z,4.65
2023-03-11T18:26:29.592Z,5.93
2023-03-11T18:28:59.956Z,4.45
2023-03-11T18:31:30.565Z,6.20
2023-03-11T18:34:03.375Z,3.67
2023-03-11T18:36:37.408Z,3.75
2023-03-11T18:39:05.008Z,4.65
2023-03-11T18:41:35.164Z,4.45
2023-03-11T18:44:05.137Z,6.10
2023-03-11T18:46:33.206Z,3.47
2023-03-11T18:49:02.299Z,3.60
2023-03-11T18:51:34.254Z,3.45
2023-03-11T18:54:02.003Z,4.10
2023-03-11T18:56:33.049Z,4.43
2023-03-11T18:59:00.952Z,4.72
2023-03-11T19:01:29.039Z,3.20
2023-03-11T19:04:00.733Z,3.15
2023-03-11T19:06:29.007Z,3.65
2023-03-11T19:09:00.510Z,6.38
2023-03-11T19:11:28.134Z,4.32
2023-03-11T19:13:55.250Z,3.20
2023-03-11T19:16:26.786Z,3.92
2023-03-11T19:18:55.272Z,3.35
2023-03-11T19:21:23.295Z,4.50
2023-03-11T19:23:54.918Z,4.53
2023-03-11T19:26:33.778Z,3.95
2023-03-11T19:29:07.740Z,4.22
2023-03-11T19:31:35.214Z,3.65
2023-03-11T19:34:03.663Z,3.47
2023-03-11T19:36:30.974Z,2.80
2023-03-11T19:39:00.582Z,3.78
2023-03-11T19:41:30.037Z,4.00
2023-03-11T19:43:58.797Z,4.35
2023-03-11T19:46:29.693Z,4.13
2023-03-11T19:48:59.774Z,4.20
2023-03-11T19:51:32.969Z,4.05
2023-03-11T19:54:06.718Z,3.53
2023-03-11T19:56:36.242Z,2.65
2023-03-11T19:59:04.641Z,4.65
2023-03-11T20:01:33.818Z,4.30
2023-03-11T20:04:01.102Z,5.00
2023-03-11T20:06:28.411Z,3.17
2023-03-11T20:09:00.694Z,3.45
2023-03-11T20:11:29.180Z,3.70
2023-03-11T20:13:58.994Z,4.20
2023-03-11T20:16:28.754Z,5.05
2023-03-11T20:19:00.854Z,3.42
2023-03-11T20:21:29.436Z,3.53
2023-03-11T20:23:57.879Z,4.53
2023-03-11T20:26:26.555Z,2.40
2023-03-11T20:28:57.035Z,3.95
2023-03-11T20:31:26.841Z,4.95
2023-03-11T20:33:56.921Z,2.20
2023-03-11T20:36:30.480Z,4.93
2023-03-11T20:39:04.073Z,3.90
2023-03-11T20:41:40.383Z,4.13
2023-03-11T20:44:13.325Z,4.78
2023-03-11T20:49:09.545Z,3.63
2023-03-11T20:51:39.085Z,4.10
2023-03-11T20:54:09.124Z,4.22
2023-03-11T20:56:44.597Z,4.72
2023-03-11T20:59:21.766Z,5.78
2023-03-11T21:01:57.990Z,5.03
2023-03-11T21:04:26.334Z,5.57
2023-03-11T21:06:55.585Z,6.47
2023-03-11T21:09:29.292Z,7.60
2023-03-11T21:11:56.781Z,6.60
2023-03-11T21:14:24.563Z,6.18
2023-03-11T21:16:55.090Z,7.38
2023-03-11T21:19:23.476Z,8.73
2023-03-11T21:21:52.795Z,6.47
2023-03-11T21:24:20.484Z,6.97
2023-03-11T21:26:49.930Z,6.50
2023-03-11T21:29:22.552Z,6.93
2023-03-11T21:31:56.646Z,8.63
2023-03-11T21:34:24.508Z,6.55
2023-03-11T21:36:51.784Z,6.90
2023-03-11T21:39:21.763Z,7.55
2023-03-11T21:41:54.391Z,7.50
2023-03-11T21:44:21.943Z,7.55
2023-03-11T21:46:51.213Z,6.90
2023-03-11T21:49:19.064Z,6.72
2023-03-11T21:51:46.658Z,9.00
2023-03-11T21:54:15.401Z,9.43
2023-03-11T21:56:42.873Z,7.75
2023-03-11T21:59:10.642Z,8.02
2023-03-11T22:01:38.408Z,6.57
2023-03-11T22:04:08.656Z,6.45
2023-03-11T22:06:37.410Z,8.20
2023-03-11T22:09:07.219Z,7.15
2023-03-11T22:11:37.810Z,8.02
2023-03-11T22:14:09.909Z,7.60
2023-03-11T22:16:38.562Z,8.73
2023-03-11T22:19:08.934Z,7.40
2023-03-11T22:21:36.907Z,7.82
2023-03-11T22:24:04.454Z,8.57
2023-03-11T22:26:32.102Z,6.50
2023-03-11T22:28:59.864Z,7.47
2023-03-11T22:31:29.339Z,6.85
2023-03-11T22:33:57.306Z,6.75
2023-03-11T22:36:24.697Z,7.47
2023-03-11T22:38:52.244Z,6.85
2023-03-11T22:41:21.788Z,7.00
2023-03-11T22:43:49.523Z,7.95
2023-03-11T22:46:16.710Z,7.07
2023-03-11T22:48:45.470Z,7.03
2023-03-11T22:51:13.381Z,6.50
2023-03-11T22:53:40.818Z,7.13
2023-03-11T22:56:10.947Z,7.65
2023-03-11T22:58:39.674Z,9.27
2023-03-11T23:01:11.662Z,6.55
2023-03-11T23:03:40.048Z,6.68
2023-03-11T23:06:09.467Z,6.20
2023-03-11T23:08:37.340Z,6.10
2023-03-11T23:11:11.244Z,7.43
2023-03-11T23:13:39.576Z,7.05
2023-03-11T23:16:16.423Z,6.55
2023-03-11T23:18:45.104Z,7.32
2023-03-11T23:21:26.891Z,6.63
2023-03-11T23:23:57.651Z,6.00
2023-03-11T23:26:25.126Z,6.05
2023-03-11T23:28:53.642Z,5.57
2023-03-11T23:31:24.426Z,7.18
2023-03-11T23:33:52.104Z,5.32
2023-03-11T23:36:23.703Z,6.63
2023-03-11T23:38:52.180Z,6.68
2023-03-11T23:41:21.117Z,5.22
2023-03-11T23:43:48.589Z,8.43
2023-03-11T23:46:16.273Z,7.40
2023-03-11T23:48:46.073Z,5.78
2023-03-11T23:51:14.038Z,9.63
2023-03-11T23:53:41.379Z,5.43
2023-03-11T23:56:15.106Z,6.25
2023-03-11T23:58:45.563Z,6.00
